createdAt,value
2017-09-06T00:00:37.597Z,99.99
2017-09-06T00:01:37.665Z,99.99
2017-09-06T00:02:37.675Z,99.99
2017-09-06T00:03:37.599Z,99.99
2017-09-06T00:04:37.672Z,99.99
2017-09-06T00:05:37.583Z,99.99
2017-09-06T00:06:37.676Z,99.99
2017-09-06T00:07:37.670Z,99.99
2017-09-06T00:08:37.601Z,99.99
2017-09-06T00:09:37.579Z,99.99
2017-09-06T00:10:37.617Z,99.99
2017-09-06T00:11:37.575Z,99.99
2017-09-06T00:12:37.576Z,99.99
2017-09-06T00:13:37.564Z,99.99
2017-09-06T00:14:37.522Z,99.99
2017-09-06T00:15:37.563Z,99.99
2017-09-06T00:16:37.579Z,99.99
2017-09-06T00:17:37.569Z,99.99
2017-09-06T00:18:37.601Z,99.99
2017-09-06T00:19:37.610Z,99.99
2017-09-06T00:20:37.579Z,99.99
2017-09-06T00:21:37.613Z,99.99
2017-09-06T00:22:37.658Z,99.99
2017-09-06T00:23:37.679Z,99.99
2017-09-06T00:24:37.663Z,99.99
2017-09-06T00:25:37.688Z,99.99
2017-09-06T00:26:37.680Z,99.99
2017-09-06T00:27:37.597Z,99.99
2017-09-06T00:28:37.644Z,99.99
2017-09-06T00:29:37.649Z,99.99
2017-09-06T00:30:37.624Z,99.99
2017-09-06T00:31:37.626Z,99.99
2017-09-06T00:32:37.597Z,99.99
2017-09-06T00:33:37.631Z,99.99
2017-09-06T00:34:37.604Z,99.99
2017-09-06T00:35:37.690Z,99.99
2017-09-06T00:36:37.618Z,99.99
2017-09-06T00:37:37.633Z,99.99
2017-09-06T00:38:37.622Z,99.99
2017-09-06T00:39:37.667Z,99.99
2017-09-06T00:40:37.628Z,99.99
2017-09-06T00:41:37.634Z,99.99
2017-09-06T00:42:37.663Z,99.99
2017-09-06T00:43:37.607Z,99.99
2017-09-06T00:44:37.733Z,99.99
2017-09-06T00:45:37.639Z,99.99
2017-09-06T00:46:37.636Z,99.99
2017-09-06T00:47:37.634Z,99.99
2017-09-06T00:48:37.654Z,99.99
2017-09-06T00:49:37.658Z,99.99
2017-09-06T00:50:37.630Z,99.99
2017-09-06T00:51:37.636Z,99.99
2017-09-06T00:52:37.674Z,99.99
2017-09-06T00:53:37.670Z,99.99
2017-09-06T00:54:37.636Z,99.99
2017-09-06T00:55:37.676Z,99.99
2017-09-06T00:56:37.608Z,99.99
2017-09-06T00:57:37.611Z,99.99
2017-09-06T00:58:37.709Z,99.99
2017-09-06T00:59:37.610Z,99.99
2017-09-06T01:00:37.695Z,99.99
2017-09-06T01:01:37.708Z,99.99
2017-09-06T01:02:37.650Z,99.99
2017-09-06T01:03:37.666Z,99.99
2017-09-06T01:04:37.676Z,99.99
2017-09-06T01:05:37.678Z,99.99
2017-09-06T01:06:37.646Z,99.99
2017-09-06T01:07:37.654Z,99.99
2017-09-06T01:08:37.670Z,99.99
2017-09-06T01:09:37.678Z,99.99
2017-09-06T01:10:37.686Z,99.99
2017-09-06T01:11:37.628Z,99.99
2017-09-06T01:12:37.587Z,99.99
2017-09-06T01:13:37.640Z,99.99
2017-09-06T01:14:37.642Z,99.99
2017-09-06T01:15:37.602Z,99.99
2017-09-06T01:16:37.644Z,99.99
2017-09-06T01:17:37.646Z,99.99
2017-09-06T01:18:37.651Z,99.99
2017-09-06T01:19:37.604Z,99.99
2017-09-06T01:20:37.625Z,99.99
2017-09-06T01:21:37.697Z,99.99
2017-09-06T01:22:37.648Z,99.99
2017-09-06T01:23:37.676Z,99.99
2017-09-06T01:24:37.714Z,99.99
2017-09-06T01:25:37.713Z,99.99
2017-09-06T01:26:37.698Z,99.99
2017-09-06T01:27:37.720Z,99.99
2017-09-06T01:28:37.650Z,99.99
2017-09-06T01:29:37.660Z,99.99
2017-09-06T01:30:37.654Z,99.99
2017-09-06T01:31:37.694Z,99.99
2017-09-06T01:32:37.669Z,99.99
2017-09-06T01:33:37.658Z,99.99
2017-09-06T01:34:37.631Z,99.99
2017-09-06T01:35:37.686Z,99.99
2017-09-06T01:36:37.690Z,99.99
2017-09-06T01:37:37.657Z,99.99
2017-09-06T01:38:37.662Z,99.99
2017-09-06T01:39:37.691Z,99.99
2017-09-06T01:40:37.723Z,99.99
2017-09-06T01:41:37.729Z,99.99
2017-09-06T01:42:37.671Z,99.99
2017-09-06T01:43:37.639Z,99.99
2017-09-06T01:44:37.666Z,99.99
2017-09-06T01:45:37.670Z,99.99
2017-09-06T01:46:37.689Z,99.99
2017-09-06T01:47:37.670Z,99.99
2017-09-06T01:48:37.664Z,99.99
2017-09-06T01:49:37.642Z,99.99
2017-09-06T01:50:37.733Z,99.99
2017-09-06T01:51:37.712Z,99.99
2017-09-06T01:52:37.705Z,99.99
2017-09-06T01:53:37.620Z,99.99
2017-09-06T01:54:37.668Z,99.99
2017-09-06T01:55:37.659Z,99.99
2017-09-06T01:56:37.620Z,99.99
2017-09-06T01:57:37.662Z,99.99
2017-09-06T01:58:37.714Z,99.99
2017-09-06T01:59:37.712Z,99.99
2017-09-06T02:00:37.662Z,99.99
2017-09-06T02:01:37.733Z,99.99
2017-09-06T02:02:37.698Z,99.99
2017-09-06T02:03:37.669Z,99.99
2017-09-06T02:04:37.738Z,99.99
2017-09-06T02:05:37.651Z,99.99
2017-09-06T02:06:37.709Z,99.99
2017-09-06T02:07:37.718Z,99.99
2017-09-06T02:08:37.722Z,99.99
2017-09-06T02:09:37.712Z,99.99
2017-09-06T02:10:37.744Z,99.99
2017-09-06T02:11:37.648Z,99.99
2017-09-06T02:12:37.649Z,99.99
2017-09-06T02:13:37.670Z,99.99
2017-09-06T02:14:37.669Z,99.99
2017-09-06T02:15:37.593Z,99.99
2017-09-06T02:16:37.591Z,99.99
2017-09-06T02:17:37.592Z,99.99
2017-09-06T02:18:37.665Z,99.99
2017-09-06T02:19:37.641Z,99.99
2017-09-06T02:20:37.669Z,99.99
2017-09-06T02:21:37.744Z,99.99
2017-09-06T02:22:37.751Z,99.99
2017-09-06T02:23:37.744Z,99.99
2017-09-06T02:24:37.729Z,99.99
2017-09-06T02:25:37.672Z,99.99
2017-09-06T02:26:37.688Z,99.99
2017-09-06T02:27:37.728Z,99.99
2017-09-06T02:28:37.759Z,99.99
2017-09-06T02:29:37.719Z,99.99
2017-09-06T02:30:37.722Z,99.99
2017-09-06T02:31:37.699Z,99.99
2017-09-06T02:32:37.764Z,99.99
2017-09-06T02:33:37.665Z,99.99
2017-09-06T02:34:37.726Z,99.99
2017-09-06T02:35:37.727Z,99.99
2017-09-06T02:36:37.698Z,99.99
2017-09-06T02:37:37.739Z,99.99
2017-09-06T02:38:37.701Z,99.99
2017-09-06T02:39:37.693Z,99.99
2017-09-06T02:40:37.727Z,99.99
2017-09-06T02:41:37.657Z,99.99
2017-09-06T02:42:37.653Z,99.99
2017-09-06T02:43:37.670Z,99.99
2017-09-06T02:44:37.611Z,99.99
2017-09-06T02:45:37.671Z,99.99
2017-09-06T02:46:37.609Z,99.99
2017-09-06T02:47:37.610Z,99.99
2017-09-06T02:48:37.668Z,99.99
2017-09-06T02:49:37.660Z,99.99
2017-09-06T02:50:37.668Z,99.99
2017-09-06T02:51:37.657Z,99.99
2017-09-06T02:52:37.692Z,99.99
2017-09-06T02:53:37.812Z,99.99
2017-09-06T02:54:37.670Z,99.99
2017-09-06T02:55:37.614Z,99.99
2017-09-06T02:56:37.693Z,99.99
2017-09-06T02:57:37.693Z,99.99
2017-09-06T02:58:37.696Z,99.99
2017-09-06T02:59:37.613Z,99.99
2017-09-06T03:00:37.678Z,99.99
2017-09-06T03:01:37.713Z,99.99
2017-09-06T03:02:37.777Z,99.92
2017-09-06T03:03:37.685Z,99.75
2017-09-06T03:04:37.707Z,99.70
2017-09-06T03:05:37.736Z,99.72
2017-09-06T03:06:37.777Z,99.67
2017-09-06T03:07:37.724Z,99.07
2017-09-06T03:08:37.741Z,99.40
2017-09-06T03:09:37.726Z,99.56
2017-09-06T03:10:37.739Z,99.53
2017-09-06T03:11:37.710Z,99.32
2017-09-06T03:12:37.742Z,99.40
2017-09-06T03:13:37.709Z,99.43
2017-09-06T03:14:37.712Z,99.34
2017-09-06T03:15:37.746Z,99.43
2017-09-06T03:16:37.716Z,99.53
2017-09-06T03:17:37.713Z,99.83
2017-09-06T03:18:37.691Z,99.86
2017-09-06T03:19:37.709Z,99.86
2017-09-06T03:20:37.688Z,99.94
2017-09-06T03:21:37.757Z,99.99
2017-09-06T03:22:37.747Z,99.99
2017-09-06T03:23:37.730Z,99.99
2017-09-06T03:24:37.725Z,99.99
2017-09-06T03:25:37.749Z,99.99
2017-09-06T03:26:37.769Z,99.99
2017-09-06T03:27:37.766Z,99.99
2017-09-06T03:28:37.699Z,99.99
2017-09-06T03:29:37.767Z,99.99
2017-09-06T03:30:37.704Z,99.99
2017-09-06T03:31:37.700Z,99.99
2017-09-06T03:32:37.703Z,99.99
2017-09-06T03:33:37.702Z,99.99
2017-09-06T03:34:37.703Z,99.99
2017-09-06T03:35:37.769Z,99.99
2017-09-06T03:36:37.736Z,99.99
2017-09-06T03:37:37.774Z,99.99
2017-09-06T03:38:37.746Z,99.99
2017-09-06T03:39:37.807Z,99.99
2017-09-06T03:40:37.706Z,99.99
2017-09-06T03:41:37.772Z,99.99
2017-09-06T03:42:37.736Z,99.99
2017-09-06T03:43:37.806Z,99.99
2017-09-06T03:44:37.805Z,99.99
2017-09-06T03:45:37.763Z,99.99
2017-09-06T03:46:37.739Z,99.99
2017-09-06T03:47:37.797Z,99.99
2017-09-06T03:48:37.780Z,99.99
2017-09-06T03:49:37.802Z,99.99
2017-09-06T03:50:37.812Z,99.99
2017-09-06T03:51:37.695Z,99.99
2017-09-06T03:52:37.734Z,99.99
2017-09-06T03:53:37.665Z,99.99
2017-09-06T03:54:37.686Z,99.99
2017-09-06T03:55:37.715Z,99.99
2017-09-06T03:56:37.724Z,99.99
2017-09-06T03:57:37.737Z,99.99
2017-09-06T03:58:37.715Z,99.99
2017-09-06T03:59:37.735Z,99.99
2017-09-06T04:00:37.693Z,99.99
2017-09-06T04:01:37.809Z,99.99
2017-09-06T04:02:37.761Z,99.99
2017-09-06T04:03:37.782Z,99.99
2017-09-06T04:04:37.783Z,99.99
2017-09-06T04:05:37.812Z,99.99
2017-09-06T04:06:37.721Z,99.99
2017-09-06T04:07:37.789Z,99.99
2017-09-06T04:08:37.802Z,99.99
2017-09-06T04:09:37.775Z,99.99
2017-09-06T04:10:37.762Z,99.99
2017-09-06T04:12:37.800Z,99.99
2017-09-06T04:13:37.788Z,99.99
2017-09-06T04:14:37.791Z,99.99
2017-09-06T04:15:37.751Z,99.99
2017-09-06T04:16:37.818Z,99.99
2017-09-06T04:17:37.782Z,99.99
2017-09-06T04:18:37.822Z,99.99
2017-09-06T04:19:37.796Z,99.99
2017-09-06T04:20:37.753Z,99.99
2017-09-06T04:21:37.758Z,99.99
2017-09-06T04:22:37.763Z,99.99
2017-09-06T04:23:37.829Z,99.99
2017-09-06T04:24:37.737Z,99.99
2017-09-06T04:25:37.756Z,99.99
2017-09-06T04:26:37.731Z,99.99
2017-09-06T04:27:37.766Z,99.99
2017-09-06T04:28:37.768Z,99.99
2017-09-06T04:29:37.802Z,99.99
2017-09-06T04:30:37.738Z,99.99
2017-09-06T04:31:37.762Z,99.99
2017-09-06T04:32:37.755Z,99.99
2017-09-06T04:33:37.774Z,99.99
2017-09-06T04:34:37.744Z,99.99
2017-09-06T04:35:37.777Z,99.99
2017-09-06T04:36:37.793Z,99.99
2017-09-06T04:37:37.809Z,99.99
2017-09-06T04:38:37.836Z,99.99
2017-09-06T04:39:37.743Z,99.99
2017-09-06T04:40:37.776Z,99.99
2017-09-06T04:41:37.802Z,99.99
2017-09-06T04:42:37.738Z,99.99
2017-09-06T04:43:37.741Z,99.99
2017-09-06T04:44:37.765Z,99.99
2017-09-06T04:45:37.765Z,99.99
2017-09-06T04:46:37.743Z,99.99
2017-09-06T04:47:37.744Z,99.99
2017-09-06T04:48:37.771Z,99.99
2017-09-06T04:49:37.769Z,99.99
2017-09-06T04:50:37.743Z,99.99
2017-09-06T04:51:37.835Z,99.99
2017-09-06T04:52:37.744Z,99.99
2017-09-06T04:53:37.851Z,99.99
2017-09-06T04:54:37.740Z,99.99
2017-09-06T04:55:37.810Z,99.99
2017-09-06T04:56:37.744Z,99.99
2017-09-06T04:57:37.808Z,99.99
2017-09-06T04:58:37.747Z,99.99
2017-09-06T04:59:37.775Z,99.99
2017-09-06T05:00:37.777Z,99.99
2017-09-06T05:01:37.810Z,99.99
2017-09-06T05:02:37.777Z,99.99
2017-09-06T05:03:37.825Z,99.99
2017-09-06T05:04:37.779Z,99.99
2017-09-06T05:05:37.752Z,99.99
2017-09-06T05:06:37.735Z,99.99
2017-09-06T05:07:37.723Z,99.99
2017-09-06T05:08:37.761Z,99.99
2017-09-06T05:09:37.778Z,99.99
2017-09-06T05:10:37.823Z,99.99
2017-09-06T05:11:37.760Z,99.99
2017-09-06T05:12:37.761Z,99.99
2017-09-06T05:13:37.693Z,99.99
2017-09-06T05:14:37.690Z,99.99
2017-09-06T05:15:37.764Z,99.99
2017-09-06T05:16:37.671Z,99.99
2017-09-06T05:17:37.754Z,99.99
2017-09-06T05:18:37.748Z,99.99
2017-09-06T05:19:37.676Z,99.99
2017-09-06T05:20:37.765Z,99.99
2017-09-06T05:21:37.769Z,99.99
2017-09-06T05:22:37.738Z,99.99
2017-09-06T05:23:37.773Z,99.99
2017-09-06T05:24:37.731Z,99.99
2017-09-06T05:25:37.783Z,99.99
2017-09-06T05:26:37.907Z,99.99
2017-09-06T05:27:37.762Z,99.99
2017-09-06T05:28:37.790Z,99.99
2017-09-06T05:29:37.793Z,99.99
2017-09-06T05:30:37.773Z,99.99
2017-09-06T05:31:37.735Z,99.99
2017-09-06T05:32:37.806Z,99.99
2017-09-06T05:33:37.771Z,99.99
2017-09-06T05:34:37.770Z,99.99
2017-09-06T05:35:37.843Z,99.99
2017-09-06T05:36:37.868Z,99.99
2017-09-06T05:37:37.790Z,99.99
2017-09-06T05:38:37.814Z,99.99
2017-09-06T05:39:37.801Z,99.99
2017-09-06T05:40:37.841Z,99.99
2017-09-06T05:41:37.844Z,99.99
2017-09-06T05:42:37.812Z,99.99
2017-09-06T05:43:37.806Z,99.99
2017-09-06T05:44:37.842Z,99.99
2017-09-06T05:45:37.778Z,99.99
2017-09-06T05:46:37.810Z,99.99
2017-09-06T05:47:37.863Z,99.99
2017-09-06T05:48:37.814Z,99.99
2017-09-06T05:49:37.874Z,99.99
2017-09-06T05:50:37.878Z,99.99
2017-09-06T05:51:37.823Z,99.99
2017-09-06T05:52:37.821Z,99.99
2017-09-06T05:53:37.853Z,99.99
2017-09-06T05:54:37.783Z,99.99
2017-09-06T05:55:37.852Z,99.99
2017-09-06T05:56:37.789Z,99.99
2017-09-06T05:57:37.879Z,99.99
2017-09-06T05:58:37.782Z,99.99
2017-09-06T05:59:37.796Z,99.99
2017-09-06T06:00:37.884Z,99.99
2017-09-06T06:01:37.860Z,99.99
2017-09-06T06:02:37.842Z,99.99
2017-09-06T06:03:37.785Z,99.99
2017-09-06T06:04:37.782Z,99.99
2017-09-06T06:05:37.781Z,99.99
2017-09-06T06:06:37.785Z,99.99
2017-09-06T06:07:37.786Z,99.99
2017-09-06T06:08:37.810Z,99.99
2017-09-06T06:09:37.783Z,99.89
2017-09-06T06:10:37.840Z,99.99
2017-09-06T06:11:37.845Z,99.99
2017-09-06T06:12:37.840Z,99.99
2017-09-06T06:13:37.786Z,99.99
2017-09-06T06:14:37.846Z,99.99
2017-09-06T06:15:37.789Z,99.99
2017-09-06T06:16:37.846Z,99.99
2017-09-06T06:17:37.848Z,99.99
2017-09-06T06:18:37.818Z,99.99
2017-09-06T06:19:37.822Z,99.99
2017-09-06T06:20:37.788Z,99.99
2017-09-06T06:21:37.820Z,99.99
2017-09-06T06:22:37.862Z,99.99
2017-09-06T06:23:37.821Z,99.99
2017-09-06T06:24:37.807Z,99.99
2017-09-06T06:25:37.807Z,99.99
2017-09-06T06:26:37.800Z,99.83
2017-09-06T06:27:37.837Z,99.86
2017-09-06T06:28:37.888Z,99.89
2017-09-06T06:29:37.862Z,99.81
2017-09-06T06:30:37.839Z,99.56
2017-09-06T06:31:37.867Z,99.32
2017-09-06T06:32:37.901Z,98.83
2017-09-06T06:33:37.809Z,99.51
2017-09-06T06:34:37.843Z,99.53
2017-09-06T06:35:37.834Z,99.34
2017-09-06T06:36:37.833Z,99.59
2017-09-06T06:37:37.905Z,99.70
2017-09-06T06:38:37.843Z,99.92
2017-09-06T06:39:37.903Z,99.40
2017-09-06T06:40:37.910Z,99.02
2017-09-06T06:41:37.875Z,99.56
2017-09-06T06:42:37.802Z,99.34
2017-09-06T06:43:37.862Z,98.59
2017-09-06T06:44:37.869Z,97.12
2017-09-06T06:45:37.865Z,96.31
2017-09-06T06:46:37.805Z,97.26
2017-09-06T06:47:37.872Z,96.99
2017-09-06T06:48:37.805Z,96.93
2017-09-06T06:49:37.836Z,94.29
2017-09-06T06:50:37.856Z,94.83
2017-09-06T06:51:37.839Z,92.54
2017-09-06T06:52:37.853Z,93.24
2017-09-06T06:53:37.892Z,92.11
2017-09-06T06:54:37.913Z,92.62
2017-09-06T06:55:37.818Z,92.27
2017-09-06T06:56:37.910Z,93.18
2017-09-06T06:57:37.855Z,93.32
2017-09-06T06:58:37.849Z,91.52
2017-09-06T06:59:37.824Z,91.60
2017-09-06T07:00:37.880Z,92.62
2017-09-06T07:01:37.820Z,91.55
2017-09-06T07:02:37.843Z,92.49
2017-09-06T07:03:37.888Z,90.23
2017-09-06T07:04:37.845Z,90.80
2017-09-06T07:05:37.887Z,91.25
2017-09-06T07:06:37.832Z,91.07
2017-09-06T07:07:37.836Z,90.71
2017-09-06T07:08:37.850Z,91.17
2017-09-06T07:09:37.821Z,90.71
2017-09-06T07:10:37.803Z,90.53
2017-09-06T07:11:37.833Z,90.71
2017-09-06T07:12:37.863Z,90.80
2017-09-06T07:13:37.833Z,90.61
2017-09-06T07:14:37.836Z,90.66
2017-09-06T07:15:37.830Z,91.82
2017-09-06T07:16:37.930Z,90.26
2017-09-06T07:17:37.996Z,89.54
2017-09-06T07:18:37.889Z,88.89
2017-09-06T07:19:37.835Z,88.60
2017-09-06T07:20:37.841Z,89.70
2017-09-06T07:21:37.920Z,89.24
2017-09-06T07:22:37.878Z,90.05
2017-09-06T07:23:37.893Z,89.97
2017-09-06T07:24:37.858Z,89.19
2017-09-06T07:25:37.931Z,90.80
2017-09-06T07:26:37.879Z,88.84
2017-09-06T07:27:37.844Z,89.59
2017-09-06T07:28:37.866Z,89.14
2017-09-06T07:29:37.910Z,90.13
2017-09-06T07:30:37.861Z,90.09
2017-09-06T07:31:37.858Z,87.59
2017-09-06T07:32:37.843Z,88.76
2017-09-06T07:33:37.842Z,85.93
2017-09-06T07:34:37.946Z,88.25
2017-09-06T07:35:37.917Z,87.37
2017-09-06T07:36:37.909Z,88.17
2017-09-06T07:37:37.917Z,86.52
2017-09-06T07:38:37.881Z,86.17
2017-09-06T07:39:37.943Z,86.17
2017-09-06T07:40:37.867Z,86.04
2017-09-06T07:41:37.881Z,85.96
2017-09-06T07:42:37.871Z,85.48
2017-09-06T07:43:37.852Z,84.34
2017-09-06T07:44:37.936Z,85.80
2017-09-06T07:45:37.906Z,86.15
2017-09-06T07:46:37.904Z,85.88
2017-09-06T07:47:37.906Z,85.93
2017-09-06T07:48:37.945Z,87.59
2017-09-06T07:49:37.881Z,87.45
2017-09-06T07:50:37.950Z,86.38
2017-09-06T07:51:37.880Z,86.68
2017-09-06T07:52:37.852Z,86.73
2017-09-06T07:53:37.946Z,87.05
2017-09-06T07:54:37.941Z,87.61
2017-09-06T07:55:37.878Z,86.28
2017-09-06T07:56:37.879Z,86.79
2017-09-06T07:57:37.891Z,87.77
2017-09-06T07:58:37.896Z,87.16
2017-09-06T07:59:37.872Z,86.81
2017-09-06T08:00:37.893Z,86.76
2017-09-06T08:01:37.949Z,86.97
2017-09-06T08:02:37.930Z,87.74
2017-09-06T08:03:37.863Z,88.62
2017-09-06T08:04:37.868Z,86.60
2017-09-06T08:05:37.916Z,87.82
2017-09-06T08:06:37.917Z,87.26
2017-09-06T08:07:37.894Z,85.61
2017-09-06T08:08:37.933Z,85.53
2017-09-06T08:10:37.956Z,83.28
2017-09-06T08:11:37.888Z,84.44
2017-09-06T08:12:37.861Z,82.16
2017-09-06T08:13:37.913Z,80.60
2017-09-06T08:14:37.922Z,82.48
2017-09-06T08:15:37.890Z,82.72
2017-09-06T08:16:37.921Z,82.35
2017-09-06T08:17:37.921Z,82.61
2017-09-06T08:18:37.888Z,81.50
2017-09-06T08:19:37.891Z,81.29
2017-09-06T08:20:37.894Z,82.64
2017-09-06T08:21:37.859Z,81.00
2017-09-06T08:22:37.944Z,81.58
2017-09-06T08:23:37.867Z,81.08
2017-09-06T08:24:37.892Z,81.74
2017-09-06T08:25:37.967Z,81.29
2017-09-06T08:26:37.879Z,80.15
2017-09-06T08:27:37.929Z,80.41
2017-09-06T08:28:37.905Z,80.87
2017-09-06T08:29:37.968Z,80.79
2017-09-06T08:30:37.928Z,80.05
2017-09-06T08:31:37.875Z,80.92
2017-09-06T08:32:37.911Z,79.41
2017-09-06T08:33:37.894Z,81.32
2017-09-06T08:34:37.817Z,81.48
2017-09-06T08:35:37.898Z,81.37
2017-09-06T08:36:37.895Z,81.74
2017-09-06T08:37:37.857Z,80.68
2017-09-06T08:38:37.823Z,81.18
2017-09-06T08:39:37.893Z,82.88
2017-09-06T08:40:37.860Z,82.67
2017-09-06T08:41:37.899Z,83.25
2017-09-06T08:42:37.900Z,85.83
2017-09-06T08:43:37.883Z,86.97
2017-09-06T08:44:37.918Z,88.25
2017-09-06T08:45:37.941Z,89.43
2017-09-06T08:46:37.928Z,90.93
2017-09-06T08:47:37.904Z,92.11
2017-09-06T08:48:37.921Z,92.51
2017-09-06T08:49:37.972Z,94.07
2017-09-06T08:50:37.938Z,95.75
2017-09-06T08:51:37.914Z,96.83
2017-09-06T08:52:37.943Z,96.88
2017-09-06T08:53:37.889Z,97.42
2017-09-06T08:54:37.890Z,97.23
2017-09-06T08:55:37.941Z,96.83
2017-09-06T08:56:37.948Z,97.15
2017-09-06T08:57:37.945Z,97.34
2017-09-06T08:58:37.896Z,97.18
2017-09-06T08:59:37.929Z,97.61
2017-09-06T09:00:37.981Z,94.42
2017-09-06T09:01:37.924Z,95.31
2017-09-06T09:02:37.987Z,94.77
2017-09-06T09:03:37.901Z,93.85
2017-09-06T09:04:37.906Z,95.26
2017-09-06T09:05:37.909Z,94.69
2017-09-06T09:06:37.893Z,94.93
2017-09-06T09:07:37.840Z,93.89
2017-09-06T09:08:37.892Z,93.81
2017-09-06T09:09:37.837Z,94.59
2017-09-06T09:10:37.843Z,92.03
2017-09-06T09:11:37.887Z,89.70
2017-09-06T09:12:37.845Z,91.41
2017-09-06T09:13:37.948Z,90.09
2017-09-06T09:14:37.956Z,92.57
2017-09-06T09:15:37.925Z,91.14
2017-09-06T09:16:37.950Z,91.84
2017-09-06T09:17:37.893Z,91.11
2017-09-06T09:18:37.896Z,89.67
2017-09-06T09:19:37.903Z,90.09
2017-09-06T09:20:37.927Z,89.37
2017-09-06T09:21:37.900Z,85.64
2017-09-06T09:22:37.955Z,86.22
2017-09-06T09:23:37.973Z,84.71
2017-09-06T09:24:37.917Z,86.91
2017-09-06T09:25:37.879Z,87.29
2017-09-06T09:26:37.914Z,88.31
2017-09-06T09:27:37.907Z,88.23
2017-09-06T09:28:37.878Z,88.41
2017-09-06T09:29:37.929Z,87.00
2017-09-06T09:30:37.890Z,86.89
2017-09-06T09:31:37.864Z,86.91
2017-09-06T09:32:37.906Z,87.67
2017-09-06T09:33:37.968Z,86.44
2017-09-06T09:34:37.970Z,84.76
2017-09-06T09:35:37.970Z,85.40
2017-09-06T09:36:37.965Z,86.71
2017-09-06T09:37:37.908Z,86.15
2017-09-06T09:38:37.905Z,87.67
2017-09-06T09:39:37.905Z,86.68
2017-09-06T09:40:37.941Z,86.97
2017-09-06T09:41:37.918Z,88.68
2017-09-06T09:42:37.939Z,89.11
2017-09-06T09:43:37.924Z,87.88
2017-09-06T09:44:37.924Z,86.30
2017-09-06T09:45:37.948Z,87.82
2017-09-06T09:46:38.008Z,89.16
2017-09-06T09:47:37.945Z,86.73
2017-09-06T09:48:38.010Z,88.23
2017-09-06T09:49:37.944Z,88.92
2017-09-06T09:50:38.022Z,88.79
2017-09-06T09:51:37.925Z,88.15
2017-09-06T09:52:38.020Z,90.90
2017-09-06T09:53:37.925Z,91.17
2017-09-06T09:54:38.000Z,91.30
2017-09-06T09:55:37.997Z,92.43
2017-09-06T09:56:37.929Z,93.72
2017-09-06T09:57:37.988Z,95.12
2017-09-06T09:58:37.926Z,94.77
2017-09-06T09:59:37.930Z,96.42
2017-09-06T10:00:37.928Z,95.77
2017-09-06T10:01:37.968Z,96.80
2017-09-06T10:02:38.004Z,97.18
2017-09-06T10:03:37.985Z,97.50
2017-09-06T10:04:37.921Z,95.34
2017-09-06T10:05:37.920Z,97.85
2017-09-06T10:06:37.923Z,95.53
2017-09-06T10:07:37.923Z,96.88
2017-09-06T10:08:37.924Z,95.50
2017-09-06T10:09:37.922Z,95.47
2017-09-06T10:10:37.990Z,97.47
2017-09-06T10:11:37.937Z,95.50
2017-09-06T10:12:37.928Z,94.99
2017-09-06T10:13:38.038Z,95.75
2017-09-06T10:14:37.955Z,95.23
2017-09-06T10:15:37.973Z,94.96
2017-09-06T10:16:38.014Z,95.91
2017-09-06T10:17:37.996Z,95.69
2017-09-06T10:18:38.027Z,94.02
2017-09-06T10:19:37.979Z,95.45
2017-09-06T10:20:38.027Z,94.75
2017-09-06T10:21:38.038Z,94.40
2017-09-06T10:22:38.008Z,94.93
2017-09-06T10:23:37.974Z,94.45
2017-09-06T10:24:37.979Z,93.78
2017-09-06T10:25:37.943Z,94.40
2017-09-06T10:26:38.004Z,95.01
2017-09-06T10:27:37.945Z,94.77
2017-09-06T10:28:37.943Z,94.42
2017-09-06T10:29:38.019Z,94.69
2017-09-06T10:30:37.986Z,94.34
2017-09-06T10:31:37.951Z,94.26
2017-09-06T10:32:38.003Z,95.04
2017-09-06T10:33:37.936Z,95.39
2017-09-06T10:34:37.940Z,95.31
2017-09-06T10:35:37.971Z,94.42
2017-09-06T10:36:38.002Z,95.12
2017-09-06T10:37:37.941Z,93.37
2017-09-06T10:38:37.945Z,92.65
2017-09-06T10:39:37.970Z,94.15
2017-09-06T10:40:38.010Z,93.56
2017-09-06T10:41:37.946Z,93.67
2017-09-06T10:42:38.008Z,94.91
2017-09-06T10:43:37.974Z,93.85
2017-09-06T10:44:38.008Z,94.88
2017-09-06T10:45:38.007Z,94.40
2017-09-06T10:46:37.979Z,94.40
2017-09-06T10:47:37.977Z,93.78
2017-09-06T10:48:37.979Z,94.04
2017-09-06T10:49:37.945Z,94.42
2017-09-06T10:50:38.028Z,94.91
2017-09-06T10:51:38.019Z,91.76
2017-09-06T10:52:37.949Z,91.79
2017-09-06T10:53:37.988Z,91.38
2017-09-06T10:54:37.965Z,92.86
2017-09-06T10:55:37.977Z,92.43
2017-09-06T10:56:37.968Z,90.98
2017-09-06T10:57:38.022Z,91.33
2017-09-06T10:58:37.988Z,90.93
2017-09-06T10:59:37.986Z,90.96
2017-09-06T11:00:37.963Z,91.38
2017-09-06T11:01:38.024Z,91.71
2017-09-06T11:02:37.968Z,93.02
2017-09-06T11:03:37.994Z,91.86
2017-09-06T11:04:37.970Z,91.60
2017-09-06T11:05:37.968Z,91.20
2017-09-06T11:06:38.041Z,91.49
2017-09-06T11:07:38.056Z,92.65
2017-09-06T11:08:37.970Z,91.73
2017-09-06T11:09:37.974Z,91.47
2017-09-06T11:10:38.065Z,91.38
2017-09-06T11:11:38.028Z,91.33
2017-09-06T11:12:38.003Z,91.55
2017-09-06T11:13:37.998Z,92.27
2017-09-06T11:14:38.026Z,90.39
2017-09-06T11:15:37.962Z,90.63
2017-09-06T11:16:37.994Z,91.22
2017-09-06T11:17:37.971Z,89.72
2017-09-06T11:18:38.025Z,90.58
2017-09-06T11:19:37.996Z,89.62
2017-09-06T11:20:37.970Z,90.61
2017-09-06T11:21:37.969Z,87.82
2017-09-06T11:22:38.029Z,88.17
2017-09-06T11:23:38.003Z,88.44
2017-09-06T11:24:38.000Z,87.64
2017-09-06T11:25:37.986Z,87.40
2017-09-06T11:26:38.006Z,88.01
2017-09-06T11:27:37.975Z,86.94
2017-09-06T11:28:38.007Z,84.87
2017-09-06T11:29:37.998Z,85.88
2017-09-06T11:30:37.951Z,86.63
2017-09-06T11:31:38.008Z,86.04
2017-09-06T11:32:37.999Z,86.87
2017-09-06T11:33:37.986Z,86.71
2017-09-06T11:34:38.042Z,86.22
2017-09-06T11:35:37.971Z,86.60
2017-09-06T11:36:38.036Z,86.38
2017-09-06T11:37:38.037Z,87.26
2017-09-06T11:38:37.974Z,87.10
2017-09-06T11:39:38.042Z,86.17
2017-09-06T11:40:38.040Z,86.91
2017-09-06T11:41:37.986Z,86.84
2017-09-06T11:42:38.018Z,87.74
2017-09-06T11:44:37.983Z,88.20
2017-09-06T11:45:38.050Z,85.99
2017-09-06T11:46:38.048Z,86.44
2017-09-06T11:47:38.015Z,87.53
2017-09-06T11:48:37.980Z,87.53
2017-09-06T11:49:37.984Z,88.52
2017-09-06T11:50:38.048Z,88.09
2017-09-06T11:51:38.013Z,89.00
2017-09-06T11:52:37.992Z,87.51
2017-09-06T11:53:38.037Z,87.51
2017-09-06T11:54:38.083Z,87.43
2017-09-06T11:55:38.024Z,88.76
2017-09-06T11:56:38.068Z,87.34
2017-09-06T11:57:38.084Z,86.84
2017-09-06T11:58:38.086Z,87.59
2017-09-06T11:59:38.054Z,87.64
2017-09-06T12:00:38.085Z,84.87
2017-09-06T12:01:38.006Z,85.40
2017-09-06T12:02:38.074Z,85.21
2017-09-06T12:03:38.006Z,84.92
2017-09-06T12:04:38.034Z,83.83
2017-09-06T12:05:38.035Z,84.47
2017-09-06T12:06:38.090Z,85.19
2017-09-06T12:07:38.042Z,84.07
2017-09-06T12:08:38.090Z,83.78
2017-09-06T12:09:38.037Z,84.87
2017-09-06T12:10:38.090Z,83.78
2017-09-06T12:11:38.097Z,83.28
2017-09-06T12:12:38.039Z,84.12
2017-09-06T12:13:38.035Z,84.66
2017-09-06T12:14:38.102Z,84.05
2017-09-06T12:15:38.047Z,85.46
2017-09-06T12:16:38.010Z,85.53
2017-09-06T12:17:38.103Z,85.61
2017-09-06T12:18:38.034Z,85.03
2017-09-06T12:19:38.042Z,85.03
2017-09-06T12:20:38.104Z,86.71
2017-09-06T12:21:38.088Z,87.21
2017-09-06T12:22:38.032Z,88.71
2017-09-06T12:23:38.035Z,86.63
2017-09-06T12:24:38.037Z,88.46
2017-09-06T12:25:38.035Z,87.64
2017-09-06T12:26:38.041Z,86.79
2017-09-06T12:27:38.034Z,87.90
2017-09-06T12:28:38.069Z,86.12
2017-09-06T12:29:38.076Z,86.07
2017-09-06T12:30:38.038Z,86.94
2017-09-06T12:31:38.039Z,84.74
2017-09-06T12:32:38.062Z,85.13
2017-09-06T12:33:38.040Z,84.12
2017-09-06T12:34:38.028Z,84.07
2017-09-06T12:35:38.018Z,81.87
2017-09-06T12:36:37.971Z,79.39
2017-09-06T12:37:38.045Z,79.10
2017-09-06T12:38:38.021Z,79.65
2017-09-06T12:39:37.973Z,79.39
2017-09-06T12:40:37.992Z,76.94
2017-09-06T12:41:37.973Z,73.79
2017-09-06T12:42:38.047Z,74.89
2017-09-06T12:43:38.014Z,76.10
2017-09-06T12:44:38.023Z,73.85
2017-09-06T12:45:38.017Z,74.76
2017-09-06T12:46:38.017Z,73.89
2017-09-06T12:47:38.100Z,76.12
2017-09-06T12:48:38.048Z,72.93
2017-09-06T12:49:38.082Z,72.90
2017-09-06T12:50:38.084Z,74.94
2017-09-06T12:51:38.017Z,72.30
2017-09-06T12:52:38.109Z,70.50
2017-09-06T12:53:38.032Z,72.95
2017-09-06T12:54:38.129Z,71.54
2017-09-06T12:55:38.065Z,72.17